Time;durP1;ratioP1;P1;durP2;ratioP2;P2;SDS_P1;SDS_P2;PMS_P1;PMS_P2;Temp;Humidity;BMP_temperature;BMP_pressure;BME280_temperature;BME280_humidity;BME280_pressure;Samples;Min_cycle;Max_cycle;Signal;HPM_P1;HPM_P2
2022/12/25 00:00:52;;;;;;;2.70;2.60;;;;;;;;;;5051503;28;20429;-69
2022/12/25 00:03:18;;;;;;;2.67;2.47;;;;;;;;;;5051685;28;20438;-68
2022/12/25 00:05:44;;;;;;;2.70;2.10;;;;;;;;;;5069022;28;20518;-69
2022/12/25 00:08:10;;;;;;;2.57;2.37;;;;;;;;;;5067552;28;20488;-69
2022/12/25 00:10:36;;;;;;;2.37;2.17;;;;;;;;;;5068231;28;20930;-71
2022/12/25 00:13:02;;;;;;;3.53;2.10;;;;;;;;;;5069343;28;20932;-69
2022/12/25 00:15:28;;;;;;;3.53;2.30;;;;;;;;;;5051172;28;20425;-71
2022/12/25 00:17:54;;;;;;;2.30;2.30;;;;;;;;;;5068257;28;20426;-71
2022/12/25 00:20:20;;;;;;;2.43;2.23;;;;;;;;;;5069404;28;20409;-71
2022/12/25 00:22:46;;;;;;;2.37;2.27;;;;;;;;;;5068654;28;20441;-69
2022/12/25 00:25:12;;;;;;;2.73;2.63;;;;;;;;;;5069667;28;20437;-69
2022/12/25 00:27:38;;;;;;;2.50;2.23;;;;;;;;;;5069506;28;20798;-69
2022/12/25 00:30:06;;;;;;;3.00;2.80;;;;;;;;;;5069351;28;20464;-69
2022/12/25 00:32:34;;;;;;;4.17;3.00;;;;;;;;;;5068864;28;20548;-69
2022/12/25 00:35:00;;;;;;;4.40;2.47;;;;;;;;;;5050951;28;20461;-69
2022/12/25 00:37:26;;;;;;;2.50;2.40;;;;;;;;;;5068791;28;20972;-69
2022/12/25 00:39:52;;;;;;;2.20;2.10;;;;;;;;;;5068918;28;20449;-69
2022/12/25 00:42:18;;;;;;;2.50;2.40;;;;;;;;;;5069106;28;20445;-69
2022/12/25 00:44:44;;;;;;;13.33;2.47;;;;;;;;;;5068478;28;20448;-69
2022/12/25 00:47:10;;;;;;;3.23;2.80;;;;;;;;;;5069594;28;20429;-69
2022/12/25 00:49:37;;;;;;;2.50;2.30;;;;;;;;;;5071614;28;20567;-69
2022/12/25 00:52:03;;;;;;;2.60;2.50;;;;;;;;;;5073092;28;20944;-69
2022/12/25 00:54:29;;;;;;;2.27;2.20;;;;;;;;;;5072266;28;20799;-68
2022/12/25 00:56:56;;;;;;;3.10;2.00;;;;;;;;;;5072607;28;21146;-69
2022/12/25 00:59:22;;;;;;;2.60;2.37;;;;;;;;;;5072180;28;20433;-69
2022/12/25 01:01:48;;;;;;;2.63;2.20;;;;;;;;;;5073007;28;20475;-69
2022/12/25 01:04:14;;;;;;;2.10;2.00;;;;;;;;;;5074151;28;20453;-69
2022/12/25 01:06:40;;;;;;;2.30;1.73;;;;;;;;;;5071407;28;21949;-69
2022/12/25 01:11:51;;;;;;;5.87;1.97;;;;;;;;;;5072498;28;21005;-68
2022/12/25 01:14:17;;;;;;;2.30;2.20;;;;;;;;;;5072098;28;20536;-69
2022/12/25 01:16:43;;;;;;;1.93;1.83;;;;;;;;;;5072372;28;20425;-69
2022/12/25 01:19:09;;;;;;;3.33;2.13;;;;;;;;;;5072057;28;20992;-69
2022/12/25 01:21:35;;;;;;;1.93;1.93;;;;;;;;;;5072567;28;20487;-69
2022/12/25 01:24:01;;;;;;;2.20;2.10;;;;;;;;;;5072324;28;20425;-68
2022/12/25 01:26:27;;;;;;;1.70;1.70;;;;;;;;;;5072268;28;20440;-69
2022/12/25 01:28:53;;;;;;;2.50;2.40;;;;;;;;;;5072216;28;20476;-69
2022/12/25 01:31:20;;;;;;;2.90;2.03;;;;;;;;;;5071518;28;20432;-69
2022/12/25 01:33:46;;;;;;;1.93;1.93;;;;;;;;;;5072664;28;20441;-69
2022/12/25 01:36:18;;;;;;;2.73;2.63;;;;;;;;;;5071846;28;20441;-69
2022/12/25 01:38:45;;;;;;;2.13;2.13;;;;;;;;;;5071017;28;20806;-68
2022/12/25 01:41:11;;;;;;;2.97;2.73;;;;;;;;;;5072105;28;20928;-69
2022/12/25 01:43:56;;;;;;;2.57;2.47;;;;;;;;;;5053844;28;20444;-68
2022/12/25 01:46:22;;;;;;;3.10;2.90;;;;;;;;;;5071770;28;20444;-69
2022/12/25 01:48:48;;;;;;;2.57;2.37;;;;;;;;;;5071494;28;20485;-69
2022/12/25 01:51:31;;;;;;;2.10;2.00;;;;;;;;;;5072006;28;20460;-69
2022/12/25 01:53:59;;;;;;;2.93;2.47;;;;;;;;;;5072560;28;20441;-69
2022/12/25 01:56:26;;;;;;;2.30;2.10;;;;;;;;;;5071584;28;20997;-68
2022/12/25 01:58:53;;;;;;;2.30;2.20;;;;;;;;;;5071112;28;20437;-69
2022/12/25 02:01:19;;;;;;;2.70;2.60;;;;;;;;;;5053517;28;20468;-69
2022/12/25 02:03:45;;;;;;;2.80;2.60;;;;;;;;;;5071764;28;20469;-68
2022/12/25 02:06:11;;;;;;;3.13;3.00;;;;;;;;;;5071893;28;20468;-69
2022/12/25 02:08:37;;;;;;;2.83;2.10;;;;;;;;;;5070307;28;20569;-69
2022/12/25 02:11:03;;;;;;;1.73;1.73;;;;;;;;;;5071269;28;20471;-69
2022/12/25 02:13:29;;;;;;;2.20;1.70;;;;;;;;;;5071664;28;20461;-69
2022/12/25 02:15:58;;;;;;;4.57;2.23;;;;;;;;;;5070698;28;20942;-69
2022/12/25 02:18:41;;;;;;;2.27;2.17;;;;;;;;;;5071111;28;20432;-69
2022/12/25 02:21:13;;;;;;;3.53;2.57;;;;;;;;;;5052934;28;20441;-69
2022/12/25 02:23:58;;;;;;;2.50;2.40;;;;;;;;;;5071104;28;20487;-69
2022/12/25 02:26:25;;;;;;;6.63;2.63;;;;;;;;;;5070119;28;20433;-69
2022/12/25 02:29:04;;;;;;;2.33;2.20;;;;;;;;;;5070597;28;20538;-69
2022/12/25 02:31:42;;;;;;;2.13;1.93;;;;;;;;;;5070733;28;20425;-69
2022/12/25 02:34:14;;;;;;;2.53;2.47;;;;;;;;;;5070298;28;20498;-69
2022/12/25 02:36:42;;;;;;;1.87;1.83;;;;;;;;;;5070127;28;20429;-69
2022/12/25 02:41:59;;;;;;;2.13;2.03;;;;;;;;;;5055497;28;20536;-69
2022/12/25 03:06:43;;;;;;;2.40;2.40;;;;;;;;;;5070712;28;20553;-69
2022/12/25 03:12:01;;;;;;;2.67;1.70;;;;;;;;;;5070240;28;20444;-69
2022/12/25 03:17:13;;;;;;;2.10;2.10;;;;;;;;;;5070300;28;20511;-69
2022/12/25 03:27:56;;;;;;;1.87;1.53;;;;;;;;;;5069718;28;20902;-69
2022/12/25 03:33:37;;;;;;;3.03;2.83;;;;;;;;;;5067168;28;20436;-69
2022/12/25 03:36:06;;;;;;;4.50;2.07;;;;;;;;;;5051625;28;20918;-69
2022/12/25 04:36:47;;;;;;;2.23;2.23;;;;;;;;;;5067704;28;20483;-69
2022/12/25 04:39:12;;;;;;;3.80;1.93;;;;;;;;;;5051452;28;20460;-69
2022/12/25 04:41:39;;;;;;;5.53;1.97;;;;;;;;;;5069311;28;20434;-69
2022/12/25 04:44:05;;;;;;;2.40;2.30;;;;;;;;;;5068685;28;20531;-69
2022/12/25 04:46:30;;;;;;;1.60;1.60;;;;;;;;;;5050608;28;20537;-69
2022/12/25 04:48:56;;;;;;;13.70;1.70;;;;;;;;;;5067755;28;20571;-69
2022/12/25 04:51:24;;;;;;;2.17;1.97;;;;;;;;;;5069025;28;20437;-69
2022/12/25 04:53:50;;;;;;;1.97;1.73;;;;;;;;;;5070206;28;20531;-69
2022/12/25 04:56:16;;;;;;;3.80;1.70;;;;;;;;;;5068133;28;20817;-69
2022/12/25 04:58:43;;;;;;;2.13;1.93;;;;;;;;;;5069017;28;20445;-68
2022/12/25 05:01:09;;;;;;;2.10;2.00;;;;;;;;;;5068659;28;20868;-69
2022/12/25 05:03:35;;;;;;;1.97;1.87;;;;;;;;;;5068946;28;20457;-69
2022/12/25 05:06:02;;;;;;;1.77;1.67;;;;;;;;;;5068364;28;20469;-69
2022/12/25 05:08:29;;;;;;;4.17;2.57;;;;;;;;;;5068886;28;20492;-69
2022/12/25 05:10:55;;;;;;;2.17;1.73;;;;;;;;;;5069032;28;20833;-69
2022/12/25 05:13:21;;;;;;;1.83;1.73;;;;;;;;;;5069314;28;20428;-69
2022/12/25 05:15:47;;;;;;;2.53;2.43;;;;;;;;;;5067883;28;20929;-69
2022/12/25 05:18:13;;;;;;;3.77;2.47;;;;;;;;;;5068306;28;20487;-69
2022/12/25 05:20:39;;;;;;;1.73;1.63;;;;;;;;;;5068260;28;20439;-69
2022/12/25 05:23:05;;;;;;;2.00;1.67;;;;;;;;;;5068289;28;20433;-69
2022/12/25 05:25:31;;;;;;;2.50;1.60;;;;;;;;;;5067748;28;20457;-69
2022/12/25 05:27:57;;;;;;;2.27;2.07;;;;;;;;;;5068513;28;20441;-69
2022/12/25 05:30:22;;;;;;;2.30;2.13;;;;;;;;;;5068246;28;20441;-69
2022/12/25 05:32:48;;;;;;;2.40;2.30;;;;;;;;;;5068727;28;20424;-69
2022/12/25 05:35:14;;;;;;;2.43;2.23;;;;;;;;;;5071487;28;20877;-69
2022/12/25 05:37:40;;;;;;;1.80;1.77;;;;;;;;;;5071297;28;20421;-69
2022/12/25 05:40:07;;;;;;;5.03;2.60;;;;;;;;;;5072288;28;20425;-69
2022/12/25 05:42:33;;;;;;;3.33;1.73;;;;;;;;;;5071927;28;20429;-68
2022/12/25 05:44:59;;;;;;;3.33;2.03;;;;;;;;;;5072137;28;20441;-69
2022/12/25 05:47:25;;;;;;;2.83;2.20;;;;;;;;;;5070923;28;20432;-69
2022/12/25 05:49:51;;;;;;;1.97;1.87;;;;;;;;;;5070795;28;20507;-68
2022/12/25 05:52:17;;;;;;;1.67;1.67;;;;;;;;;;5070411;28;20472;-68
2022/12/25 05:54:43;;;;;;;3.07;1.70;;;;;;;;;;5071075;28;20441;-69
2022/12/25 05:57:09;;;;;;;1.53;1.53;;;;;;;;;;5070503;28;20421;-69
2022/12/25 05:59:35;;;;;;;1.67;1.67;;;;;;;;;;5070141;28;20452;-69
2022/12/25 06:02:01;;;;;;;1.90;1.90;;;;;;;;;;5069916;28;20434;-69
2022/12/25 06:04:27;;;;;;;1.17;1.17;;;;;;;;;;5071717;28;20437;-69
2022/12/25 06:06:53;;;;;;;1.83;1.73;;;;;;;;;;5069955;28;20544;-69
2022/12/25 06:09:19;;;;;;;1.87;1.77;;;;;;;;;;5070486;28;20652;-69
2022/12/25 06:11:45;;;;;;;3.53;1.40;;;;;;;;;;5072161;28;20425;-69
2022/12/25 06:14:15;;;;;;;1.90;1.80;;;;;;;;;;5072569;28;20438;-69
2022/12/25 06:16:41;;;;;;;5.63;2.10;;;;;;;;;;5071366;28;20441;-69
2022/12/25 06:19:07;;;;;;;1.73;1.63;;;;;;;;;;5071005;28;20522;-68
2022/12/25 06:21:33;;;;;;;1.70;1.70;;;;;;;;;;5070593;28;20521;-68
2022/12/25 06:23:59;;;;;;;3.03;2.07;;;;;;;;;;5070982;28;20444;-68
2022/12/25 06:26:25;;;;;;;2.60;2.30;;;;;;;;;;5070748;28;20448;-68
2022/12/25 06:28:52;;;;;;;2.63;1.90;;;;;;;;;;5067064;28;20492;-68
2022/12/25 06:31:20;;;;;;;3.13;2.00;;;;;;;;;;5071544;28;20524;-68
2022/12/25 06:33:47;;;;;;;1.87;1.77;;;;;;;;;;5069359;28;20524;-68
2022/12/25 06:36:14;;;;;;;1.60;1.60;;;;;;;;;;5069933;28;20473;-69
2022/12/25 06:38:40;;;;;;;2.40;2.00;;;;;;;;;;5068157;28;20441;-68
2022/12/25 06:41:17;;;;;;;1.80;1.80;;;;;;;;;;5069771;28;20434;-68
2022/12/25 06:43:43;;;;;;;8.70;1.83;;;;;;;;;;5069024;28;20879;-68
2022/12/25 06:46:10;;;;;;;4.30;2.00;;;;;;;;;;5067317;28;20472;-68
2022/12/25 06:48:37;;;;;;;2.00;2.00;;;;;;;;;;5069453;28;20495;-68
2022/12/25 06:51:03;;;;;;;1.77;1.77;;;;;;;;;;5070164;28;20425;-68
2022/12/25 06:53:29;;;;;;;4.17;1.90;;;;;;;;;;5052540;28;20487;-68
2022/12/25 06:56:01;;;;;;;2.17;2.07;;;;;;;;;;5070841;28;20429;-68
2022/12/25 06:58:28;;;;;;;2.47;2.37;;;;;;;;;;5068107;28;20452;-68
2022/12/25 07:00:56;;;;;;;2.17;2.07;;;;;;;;;;5070072;28;20457;-68
2022/12/25 07:03:23;;;;;;;1.93;1.93;;;;;;;;;;5069530;28;20963;-68
2022/12/25 07:05:48;;;;;;;1.57;1.57;;;;;;;;;;5069986;28;20981;-69
2022/12/25 07:08:14;;;;;;;2.80;1.97;;;;;;;;;;5070163;28;20491;-68
2022/12/25 07:10:40;;;;;;;3.70;2.50;;;;;;;;;;5070206;28;21147;-69
2022/12/25 07:13:06;;;;;;;3.10;3.00;;;;;;;;;;5070157;28;20791;-68
2022/12/25 07:15:32;;;;;;;3.00;2.83;;;;;;;;;;5052254;28;20455;-68
2022/12/25 07:17:58;;;;;;;2.47;2.37;;;;;;;;;;5070084;28;20436;-68
2022/12/25 07:20:24;;;;;;;2.13;2.03;;;;;;;;;;5069370;28;20893;-68
2022/12/25 07:22:50;;;;;;;2.53;2.33;;;;;;;;;;5068748;28;20804;-68
2022/12/25 07:25:16;;;;;;;3.27;3.03;;;;;;;;;;5068637;28;20441;-68
2022/12/25 07:27:42;;;;;;;2.77;2.57;;;;;;;;;;5068847;28;20444;-68
2022/12/25 07:30:09;;;;;;;2.80;2.60;;;;;;;;;;5069235;28;20495;-69
2022/12/25 07:32:35;;;;;;;2.87;2.77;;;;;;;;;;5069257;28;20425;-68
2022/12/25 07:35:00;;;;;;;3.07;2.97;;;;;;;;;;5068622;28;20442;-68
2022/12/25 07:37:26;;;;;;;2.60;2.50;;;;;;;;;;5068635;28;20436;-69
2022/12/25 07:39:52;;;;;;;3.40;3.23;;;;;;;;;;5051219;28;20959;-68
2022/12/25 07:42:18;;;;;;;7.17;4.33;;;;;;;;;;5068018;28;20804;-68
2022/12/25 07:44:44;;;;;;;4.53;4.30;;;;;;;;;;5071552;28;20465;-68
2022/12/25 07:47:10;;;;;;;5.43;2.67;;;;;;;;;;5052824;28;20432;-69
2022/12/25 07:49:36;;;;;;;2.83;2.60;;;;;;;;;;5069663;28;20539;-69
2022/12/25 07:52:02;;;;;;;2.47;2.47;;;;;;;;;;5069178;28;20425;-69
2022/12/25 07:54:28;;;;;;;2.30;2.20;;;;;;;;;;5069671;28;20445;-69
2022/12/25 07:56:54;;;;;;;2.60;2.40;;;;;;;;;;5068572;28;20472;-68
2022/12/25 07:59:20;;;;;;;2.70;2.60;;;;;;;;;;5069081;28;20457;-68
2022/12/25 08:01:46;;;;;;;3.23;3.07;;;;;;;;;;5064724;28;20547;-69
2022/12/25 08:04:12;;;;;;;3.23;3.03;;;;;;;;;;5068556;28;20806;-68
2022/12/25 08:06:38;;;;;;;2.27;2.27;;;;;;;;;;5067023;28;20517;-68
2022/12/25 08:09:05;;;;;;;2.80;2.37;;;;;;;;;;5066721;28;20987;-71
2022/12/25 08:11:31;;;;;;;2.10;2.10;;;;;;;;;;5067669;28;20541;-69
2022/12/25 08:13:57;;;;;;;3.53;3.03;;;;;;;;;;5069130;28;20566;-69
2022/12/25 08:16:24;;;;;;;14.40;8.00;;;;;;;;;;5069633;28;20536;-68
2022/12/25 08:18:50;;;;;;;12.10;8.33;;;;;;;;;;5068428;28;20459;-69
2022/12/25 08:21:16;;;;;;;5.30;5.00;;;;;;;;;;5069403;28;20429;-69
2022/12/25 08:23:43;;;;;;;9.13;5.60;;;;;;;;;;5051606;28;20567;-68
2022/12/25 08:26:10;;;;;;;4.90;4.70;;;;;;;;;;5068319;28;20437;-68
2022/12/25 08:28:36;;;;;;;4.67;4.47;;;;;;;;;;5068609;28;20465;-68
2022/12/25 08:31:22;;;;;;;4.63;4.40;;;;;;;;;;5069481;28;20513;-68
2022/12/25 08:33:49;;;;;;;4.10;3.90;;;;;;;;;;5068786;28;20422;-69
2022/12/25 08:36:15;;;;;;;3.73;3.53;;;;;;;;;;5067869;28;20509;-69
2022/12/25 08:38:41;;;;;;;3.77;3.63;;;;;;;;;;5049689;28;20430;-69
2022/12/25 08:41:08;;;;;;;4.50;3.87;;;;;;;;;;5068601;28;20946;-69
2022/12/25 08:43:34;;;;;;;4.50;4.30;;;;;;;;;;5049864;28;21059;-69
2022/12/25 08:46:00;;;;;;;3.73;3.50;;;;;;;;;;5067313;28;20540;-69
2022/12/25 08:48:26;;;;;;;3.43;3.13;;;;;;;;;;5067711;28;20484;-69
2022/12/25 08:50:52;;;;;;;3.87;3.67;;;;;;;;;;5068943;28;20479;-69
2022/12/25 08:53:19;;;;;;;4.13;4.03;;;;;;;;;;5068783;28;20861;-69
2022/12/25 08:55:45;;;;;;;3.50;3.40;;;;;;;;;;5068183;28;20445;-70
2022/12/25 08:58:11;;;;;;;4.37;4.17;;;;;;;;;;5067784;28;20472;-70
2022/12/25 09:00:37;;;;;;;4.13;4.03;;;;;;;;;;5068161;28;20947;-69
2022/12/25 09:03:03;;;;;;;4.17;3.87;;;;;;;;;;5067023;28;20441;-74
2022/12/25 09:05:29;;;;;;;3.93;3.83;;;;;;;;;;5068352;28;20838;-70
2022/12/25 09:07:55;;;;;;;4.50;4.30;;;;;;;;;;5066736;28;20445;-69
2022/12/25 09:10:21;;;;;;;4.70;4.47;;;;;;;;;;5072234;28;20472;-70
2022/12/25 09:12:47;;;;;;;3.60;3.23;;;;;;;;;;5072669;28;20441;-69
2022/12/25 09:15:13;;;;;;;3.17;3.07;;;;;;;;;;5072582;28;20429;-70
2022/12/25 09:17:39;;;;;;;4.20;4.00;;;;;;;;;;5072492;28;20459;-69
2022/12/25 09:20:06;;;;;;;3.80;3.63;;;;;;;;;;5072415;28;20430;-69
2022/12/25 09:22:32;;;;;;;4.20;3.90;;;;;;;;;;5072420;28;20479;-69
2022/12/25 09:24:58;;;;;;;3.63;3.53;;;;;;;;;;5072409;28;20506;-69
2022/12/25 09:27:24;;;;;;;4.40;4.20;;;;;;;;;;5071104;28;20471;-69
2022/12/25 09:29:50;;;;;;;4.83;4.40;;;;;;;;;;5072071;28;20493;-69
2022/12/25 09:32:16;;;;;;;4.00;3.90;;;;;;;;;;5072921;28;20440;-69
2022/12/25 09:34:42;;;;;;;4.00;3.80;;;;;;;;;;5054809;28;20468;-68
2022/12/25 09:37:08;;;;;;;4.20;4.00;;;;;;;;;;5071336;28;20518;-70
2022/12/25 09:39:34;;;;;;;4.60;4.40;;;;;;;;;;5070604;28;20493;-69
2022/12/25 09:42:03;;;;;;;5.17;4.87;;;;;;;;;;5070044;28;20440;-69
2022/12/25 09:44:31;;;;;;;5.10;4.77;;;;;;;;;;5072073;28;20583;-68
2022/12/25 09:47:00;;;;;;;4.13;3.93;;;;;;;;;;5071357;28;20459;-68
2022/12/25 09:49:38;;;;;;;3.73;3.60;;;;;;;;;;5071252;28;20481;-69
2022/12/25 09:52:07;;;;;;;6.13;4.07;;;;;;;;;;5071883;28;20516;-69
2022/12/25 09:54:39;;;;;;;4.80;4.50;;;;;;;;;;5071278;28;20475;-68
2022/12/25 09:57:05;;;;;;;5.47;5.03;;;;;;;;;;5072188;28;20433;-68
2022/12/25 09:59:31;;;;;;;4.43;4.23;;;;;;;;;;5071439;28;20543;-69
2022/12/25 10:02:19;;;;;;;4.33;4.23;;;;;;;;;;5072489;28;20425;-68
2022/12/25 10:04:51;;;;;;;5.00;4.70;;;;;;;;;;5071888;28;20910;-69
2022/12/25 10:07:23;;;;;;;4.43;4.13;;;;;;;;;;5071691;28;20448;-69
2022/12/25 10:10:09;;;;;;;4.03;3.60;;;;;;;;;;5070682;28;20469;-69
2022/12/25 10:12:34;;;;;;;4.43;4.23;;;;;;;;;;5070804;28;20452;-69
2022/12/25 10:15:15;;;;;;;4.87;4.40;;;;;;;;;;5051653;28;20433;-69
2022/12/25 10:17:54;;;;;;;4.60;4.27;;;;;;;;;;5071742;28;20418;-69
2022/12/25 10:20:26;;;;;;;4.40;4.20;;;;;;;;;;5069455;28;20964;-69
2022/12/25 10:22:56;;;;;;;3.90;3.70;;;;;;;;;;5069132;28;20471;-70
2022/12/25 10:25:24;;;;;;;4.83;4.47;;;;;;;;;;5070556;28;20465;-70
2022/12/25 10:27:55;;;;;;;3.87;3.67;;;;;;;;;;5070047;28;20448;-70
2022/12/25 10:30:22;;;;;;;4.27;4.07;;;;;;;;;;5052914;28;20860;-69
2022/12/25 10:32:49;;;;;;;5.23;4.80;;;;;;;;;;5071558;28;20967;-69
2022/12/25 10:35:17;;;;;;;4.43;4.30;;;;;;;;;;5070677;28;20502;-69
2022/12/25 10:37:44;;;;;;;4.43;4.23;;;;;;;;;;5070588;28;20457;-69
2022/12/25 10:40:27;;;;;;;4.00;3.80;;;;;;;;;;5070570;28;20437;-70
2022/12/25 10:42:58;;;;;;;4.30;4.10;;;;;;;;;;5071806;28;20437;-69
2022/12/25 10:45:24;;;;;;;4.50;4.20;;;;;;;;;;5070186;28;20925;-69
2022/12/25 10:47:50;;;;;;;4.10;4.00;;;;;;;;;;5070924;28;20463;-70
2022/12/25 10:50:22;;;;;;;4.30;4.10;;;;;;;;;;5069511;28;20846;-70
2022/12/25 10:52:51;;;;;;;4.50;4.40;;;;;;;;;;5071675;28;20448;-69
2022/12/25 10:55:19;;;;;;;4.60;4.33;;;;;;;;;;5070408;28;21146;-70
2022/12/25 10:57:46;;;;;;;4.57;4.30;;;;;;;;;;5069624;28;20449;-69
2022/12/25 11:00:22;;;;;;;4.63;4.43;;;;;;;;;;5070086;28;20445;-70
2022/12/25 11:02:49;;;;;;;4.57;4.37;;;;;;;;;;5068617;28;20456;-69
2022/12/25 11:05:23;;;;;;;4.40;4.03;;;;;;;;;;5070491;28;20460;-69
2022/12/25 11:07:53;;;;;;;3.63;3.47;;;;;;;;;;5069648;28;20432;-69
2022/12/25 11:10:19;;;;;;;4.47;4.23;;;;;;;;;;5069678;28;20459;-70
2022/12/25 11:12:45;;;;;;;19.80;10.87;;;;;;;;;;5070316;28;20516;-70
2022/12/25 11:15:32;;;;;;;14.10;11.20;;;;;;;;;;5070211;28;20487;-70
2022/12/25 11:17:58;;;;;;;12.30;10.60;;;;;;;;;;5069752;28;20433;-69
2022/12/25 11:20:24;;;;;;;6.67;6.13;;;;;;;;;;5068507;28;20441;-70
2022/12/25 11:22:50;;;;;;;8.00;7.30;;;;;;;;;;5070766;28;20449;-69
2022/12/25 11:25:23;;;;;;;11.47;10.43;;;;;;;;;;5069987;28;20478;-69
2022/12/25 11:28:00;;;;;;;7.00;6.50;;;;;;;;;;5069927;28;20444;-69
2022/12/25 11:30:28;;;;;;;5.33;5.03;;;;;;;;;;5070002;28;20532;-69
2022/12/25 11:32:55;;;;;;;4.63;4.23;;;;;;;;;;5068373;28;20429;-69
2022/12/25 11:35:22;;;;;;;7.90;7.10;;;;;;;;;;5069768;28;20495;-68
2022/12/25 11:37:49;;;;;;;3.70;3.50;;;;;;;;;;5069727;28;20513;-69
2022/12/25 11:40:17;;;;;;;14.50;11.27;;;;;;;;;;5069590;28;20445;-69
2022/12/25 11:42:54;;;;;;;8.63;5.43;;;;;;;;;;5069480;28;20953;-69
2022/12/25 11:45:23;;;;;;;9.00;8.30;;;;;;;;;;5068720;28;20545;-69
2022/12/25 11:47:53;;;;;;;31.83;19.90;;;;;;;;;;5051527;28;20695;-69
2022/12/25 11:50:26;;;;;;;12.80;9.40;;;;;;;;;;5068509;28;20485;-70
2022/12/25 11:52:54;;;;;;;17.33;12.63;;;;;;;;;;5069474;28;20438;-69
2022/12/25 11:55:26;;;;;;;14.70;11.50;;;;;;;;;;5068402;28;20434;-69
2022/12/25 11:57:54;;;;;;;5.23;4.90;;;;;;;;;;5069070;28;20468;-69
2022/12/25 12:00:20;;;;;;;8.10;7.40;;;;;;;;;;5067997;28;20434;-69
2022/12/25 12:02:58;;;;;;;4.47;4.27;;;;;;;;;;5050818;28;20467;-69
2022/12/25 12:05:47;;;;;;;7.73;6.83;;;;;;;;;;5068653;28;20464;-69
2022/12/25 12:08:14;;;;;;;6.63;6.10;;;;;;;;;;5061286;28;20528;-69
2022/12/25 12:10:53;;;;;;;21.27;14.33;;;;;;;;;;5069278;28;20475;-69
2022/12/25 12:13:30;;;;;;;5.63;5.23;;;;;;;;;;5069535;28;20540;-69
2022/12/25 12:15:57;;;;;;;4.13;3.80;;;;;;;;;;5068947;28;20441;-69
2022/12/25 12:18:26;;;;;;;3.40;3.20;;;;;;;;;;5067770;28;20461;-70
2022/12/25 12:20:58;;;;;;;3.20;3.10;;;;;;;;;;5067632;28;20441;-69
2022/12/25 12:23:24;;;;;;;4.57;4.37;;;;;;;;;;5067377;28;20473;-69
2022/12/25 12:25:50;;;;;;;8.23;2.93;;;;;;;;;;5068322;28;20491;-69
2022/12/25 12:28:24;;;;;;;6.93;5.23;;;;;;;;;;5067698;28;20428;-70
2022/12/25 12:30:58;;;;;;;4.33;4.20;;;;;;;;;;5067280;28;20452;-68
2022/12/25 12:33:26;;;;;;;3.53;3.00;;;;;;;;;;5069059;28;20421;-69
2022/12/25 12:35:52;;;;;;;3.00;2.90;;;;;;;;;;5066898;28;20441;-69
2022/12/25 12:38:19;;;;;;;4.40;4.20;;;;;;;;;;5068228;28;20432;-69
2022/12/25 12:40:52;;;;;;;13.50;11.30;;;;;;;;;;5068013;28;20475;-68
2022/12/25 12:43:31;;;;;;;8.70;7.60;;;;;;;;;;5068608;28;20429;-68
2022/12/25 12:46:03;;;;;;;5.70;4.03;;;;;;;;;;5049932;28;20457;-68
2022/12/25 12:48:29;;;;;;;3.53;3.33;;;;;;;;;;5066203;28;20485;-69
2022/12/25 12:51:03;;;;;;;3.47;3.37;;;;;;;;;;5066167;28;20809;-69
2022/12/25 12:53:30;;;;;;;1.60;1.60;;;;;;;;;;5066286;28;20440;-69
2022/12/25 12:56:07;;;;;;;2.87;2.73;;;;;;;;;;5064953;28;20425;-69
2022/12/25 12:58:34;;;;;;;3.77;3.47;;;;;;;;;;5065921;28;20421;-70
2022/12/25 13:01:00;;;;;;;3.80;3.47;;;;;;;;;;5066679;28;21111;-69
2022/12/25 13:03:40;;;;;;;3.20;3.00;;;;;;;;;;5068558;28;20937;-69
2022/12/25 13:06:16;;;;;;;2.63;2.53;;;;;;;;;;5068439;28;20858;-69
2022/12/25 13:08:51;;;;;;;3.60;3.43;;;;;;;;;;5050317;28;20555;-69
2022/12/25 13:11:22;;;;;;;2.37;2.37;;;;;;;;;;5068317;28;20445;-71
2022/12/25 13:13:49;;;;;;;2.90;2.70;;;;;;;;;;5069636;28;20433;-69
2022/12/25 13:16:32;;;;;;;7.23;6.70;;;;;;;;;;5068937;28;20441;-69
2022/12/25 13:18:59;;;;;;;8.37;7.60;;;;;;;;;;5068637;28;20894;-69
2022/12/25 13:21:27;;;;;;;7.10;4.93;;;;;;;;;;5068276;28;20989;-69
2022/12/25 13:24:07;;;;;;;4.50;4.30;;;;;;;;;;5069161;28;20429;-70
2022/12/25 13:26:33;;;;;;;3.63;3.53;;;;;;;;;;5068711;28;20445;-70
2022/12/25 13:28:59;;;;;;;4.83;4.63;;;;;;;;;;5067984;28;20980;-70
2022/12/25 13:31:26;;;;;;;4.53;4.33;;;;;;;;;;5068751;28;20506;-69
2022/12/25 13:33:52;;;;;;;4.20;3.83;;;;;;;;;;5069534;28;20425;-69
2022/12/25 13:36:18;;;;;;;4.00;3.77;;;;;;;;;;5068316;28;20806;-70
2022/12/25 13:38:45;;;;;;;2.90;2.80;;;;;;;;;;5067968;28;20421;-69
2022/12/25 13:44:00;;;;;;;4.23;4.00;;;;;;;;;;5068592;28;20452;-70
2022/12/25 13:46:27;;;;;;;5.83;5.33;;;;;;;;;;5068850;28;20425;-70
2022/12/25 13:48:59;;;;;;;6.23;5.90;;;;;;;;;;5050081;28;20484;-70
2022/12/25 13:51:26;;;;;;;5.93;5.43;;;;;;;;;;5068711;28;20417;-69
2022/12/25 13:54:02;;;;;;;5.37;4.97;;;;;;;;;;5066391;28;20458;-70
2022/12/25 13:56:28;;;;;;;5.17;4.77;;;;;;;;;;5071043;28;21100;-69
2022/12/25 13:58:54;;;;;;;3.00;2.90;;;;;;;;;;5071577;28;20503;-69
2022/12/25 14:01:20;;;;;;;2.97;2.77;;;;;;;;;;5072528;28;20452;-69
2022/12/25 14:03:47;;;;;;;4.60;4.40;;;;;;;;;;5072245;28;20441;-69
2022/12/25 14:06:17;;;;;;;8.00;7.27;;;;;;;;;;5070492;28;20478;-69
2022/12/25 14:08:44;;;;;;;3.60;3.40;;;;;;;;;;5054223;28;21038;-69
2022/12/25 14:11:11;;;;;;;4.50;4.10;;;;;;;;;;5072040;28;20443;-69
2022/12/25 14:13:38;;;;;;;4.27;3.93;;;;;;;;;;5068983;28;20434;-69
2022/12/25 14:16:04;;;;;;;4.50;4.10;;;;;;;;;;5070803;28;20441;-69
2022/12/25 14:18:31;;;;;;;4.27;4.07;;;;;;;;;;5071349;28;20464;-70
2022/12/25 14:20:56;;;;;;;3.03;2.80;;;;;;;;;;5051801;28;20872;-69
2022/12/25 14:23:22;;;;;;;3.40;3.30;;;;;;;;;;5071506;28;20529;-69
2022/12/25 14:25:48;;;;;;;4.33;4.13;;;;;;;;;;5071942;28;20214;-69
2022/12/25 14:28:23;;;;;;;3.47;3.37;;;;;;;;;;5052542;28;20465;-69
2022/12/25 14:30:50;;;;;;;3.50;3.20;;;;;;;;;;5053361;28;20494;-70
2022/12/25 14:33:21;;;;;;;4.23;3.93;;;;;;;;;;5053811;28;20456;-69
2022/12/25 14:35:47;;;;;;;3.70;3.50;;;;;;;;;;5071433;28;20854;-70
2022/12/25 14:38:26;;;;;;;2.87;2.77;;;;;;;;;;5071205;28;20438;-70
2022/12/25 14:40:59;;;;;;;7.73;6.50;;;;;;;;;;5071028;28;20432;-69
2022/12/25 14:43:26;;;;;;;4.30;3.50;;;;;;;;;;5068693;28;20504;-69
2022/12/25 14:45:57;;;;;;;2.90;2.90;;;;;;;;;;5071298;28;21016;-70
2022/12/25 14:48:25;;;;;;;3.13;3.03;;;;;;;;;;5068227;28;20484;-69
2022/12/25 14:51:00;;;;;;;2.80;2.70;;;;;;;;;;5070639;28;20444;-70
2022/12/25 14:53:32;;;;;;;2.37;2.27;;;;;;;;;;5053102;28;20425;-70
2022/12/25 14:55:58;;;;;;;2.10;2.10;;;;;;;;;;5067860;28;20445;-69
2022/12/25 14:58:30;;;;;;;1.27;1.27;;;;;;;;;;5069736;28;20441;-69
2022/12/25 15:00:58;;;;;;;0.80;0.80;;;;;;;;;;5067599;28;20433;-70
2022/12/25 15:03:27;;;;;;;1.00;1.00;;;;;;;;;;5070356;28;20492;-69
2022/12/25 15:05:57;;;;;;;3.23;0.80;;;;;;;;;;5069447;28;20481;-70
2022/12/25 15:08:23;;;;;;;1.00;1.00;;;;;;;;;;5068832;28;20488;-69
2022/12/25 15:10:50;;;;;;;1.77;1.67;;;;;;;;;;5070067;28;20476;-69
2022/12/25 15:13:19;;;;;;;4.97;4.53;;;;;;;;;;5069348;28;20446;-70
2022/12/25 15:16:04;;;;;;;4.23;3.93;;;;;;;;;;5053046;28;20516;-70
2022/12/25 15:18:33;;;;;;;29.77;14.13;;;;;;;;;;5067957;28;20946;-70
2022/12/25 15:20:59;;;;;;;9.93;4.90;;;;;;;;;;5069442;28;20433;-70
2022/12/25 15:23:27;;;;;;;8.80;5.23;;;;;;;;;;5068845;28;20873;-70
2022/12/25 15:25:53;;;;;;;3.40;3.20;;;;;;;;;;5069859;28;20444;-70
2022/12/25 15:28:19;;;;;;;1.37;1.33;;;;;;;;;;5070226;28;20437;-70
2022/12/25 15:30:45;;;;;;;2.17;2.07;;;;;;;;;;5068577;28;20442;-69
2022/12/25 15:33:14;;;;;;;2.23;0.77;;;;;;;;;;5069482;28;20432;-69
2022/12/25 15:35:40;;;;;;;1.40;1.40;;;;;;;;;;5050508;28;21003;-70
2022/12/25 15:38:06;;;;;;;1.20;1.20;;;;;;;;;;5068151;28;20909;-69
2022/12/25 15:40:32;;;;;;;1.70;1.60;;;;;;;;;;5067838;28;20455;-70
2022/12/25 15:42:58;;;;;;;1.40;1.40;;;;;;;;;;5048487;28;20426;-69
2022/12/25 15:45:25;;;;;;;1.20;1.20;;;;;;;;;;5068965;28;20441;-69
2022/12/25 15:47:51;;;;;;;1.00;1.00;;;;;;;;;;5069177;28;20986;-69
2022/12/25 15:50:18;;;;;;;2.60;2.50;;;;;;;;;;5068294;28;20481;-70
2022/12/25 15:52:44;;;;;;;1.97;1.87;;;;;;;;;;5068909;28;20430;-69
2022/12/25 15:55:10;;;;;;;8.43;1.43;;;;;;;;;;5068816;28;20437;-69
2022/12/25 15:57:37;;;;;;;7.50;1.70;;;;;;;;;;5067685;28;20922;-69
2022/12/25 16:00:04;;;;;;;1.77;1.70;;;;;;;;;;5068439;28;21006;-70
2022/12/25 16:02:30;;;;;;;1.10;1.00;;;;;;;;;;5068315;28;20453;-70
2022/12/25 16:04:56;;;;;;;1.10;1.10;;;;;;;;;;5068112;28;20461;-70
2022/12/25 16:07:23;;;;;;;1.57;1.57;;;;;;;;;;5069037;28;20949;-69
2022/12/25 16:09:50;;;;;;;1.03;1.03;;;;;;;;;;5068369;28;20839;-70
2022/12/25 16:12:16;;;;;;;1.23;1.23;;;;;;;;;;5068902;28;21405;-69
2022/12/25 16:14:42;;;;;;;1.10;1.10;;;;;;;;;;5068818;28;20433;-70
2022/12/25 16:17:11;;;;;;;2.07;1.60;;;;;;;;;;5068399;28;20477;-69
2022/12/25 16:19:37;;;;;;;1.07;1.07;;;;;;;;;;5068540;28;20493;-69
2022/12/25 16:22:10;;;;;;;1.70;1.70;;;;;;;;;;5068564;28;20425;-70
2022/12/25 16:24:36;;;;;;;1.27;1.27;;;;;;;;;;5068075;28;20442;-70
2022/12/25 16:27:02;;;;;;;4.27;4.07;;;;;;;;;;5068519;28;20447;-70
2022/12/25 16:29:27;;;;;;;1.50;1.50;;;;;;;;;;5069260;28;20485;-69
2022/12/25 16:31:54;;;;;;;3.50;3.37;;;;;;;;;;5069063;28;20416;-69
2022/12/25 16:34:19;;;;;;;4.20;4.00;;;;;;;;;;5068877;28;20437;-68